createdAt,value
2018-11-03T00:00:39.249Z,2.30
2018-11-03T00:03:07.942Z,2.20
2018-11-03T00:22:40.552Z,2.10
2018-11-03T00:25:10.290Z,2.10
2018-11-03T00:27:39.106Z,2.10
2018-11-03T00:47:11.568Z,1.90
2018-11-03T00:49:40.892Z,1.90
2018-11-03T00:52:09.926Z,1.90
2018-11-03T00:54:45.821Z,1.90
2018-11-03T00:57:14.630Z,1.90
2018-11-03T00:59:43.289Z,1.90
2018-11-03T01:02:11.942Z,1.80
2018-11-03T01:04:40.682Z,1.80
2018-11-03T01:07:09.485Z,1.80
2018-11-03T01:09:38.376Z,1.80
2018-11-03T01:12:07.032Z,1.80
2018-11-03T01:14:35.905Z,1.80
2018-11-03T01:17:04.684Z,1.80
2018-11-03T01:19:33.340Z,1.80
2018-11-03T01:22:02.111Z,1.80
2018-11-03T01:24:30.836Z,1.80
2018-11-03T01:26:59.677Z,1.80
2018-11-03T01:29:28.407Z,1.80
2018-11-03T01:49:01.946Z,1.70
2018-11-03T01:51:32.266Z,1.70
2018-11-03T01:54:01.950Z,1.70
2018-11-03T01:56:31.050Z,1.60
2018-11-03T02:16:03.087Z,1.70
2018-11-03T02:18:31.861Z,1.60
2018-11-03T02:21:00.939Z,1.60
2018-11-03T02:40:34.364Z,1.70
2018-11-03T02:43:09.241Z,1.60
2018-11-03T02:45:37.862Z,1.70
2018-11-03T02:48:06.604Z,1.70
2018-11-03T02:50:35.329Z,1.70
2018-11-03T02:53:04.002Z,1.70
2018-11-03T02:55:34.244Z,1.70
2018-11-03T02:58:02.999Z,1.70
2018-11-03T03:00:31.743Z,1.70
2018-11-03T03:03:01.464Z,1.70
2018-11-03T03:05:30.252Z,1.70
2018-11-03T03:07:59.007Z,1.70
2018-11-03T03:10:27.847Z,1.70
2018-11-03T03:12:56.528Z,1.70
2018-11-03T03:15:25.243Z,1.70
2018-11-03T03:17:54.142Z,1.70
2018-11-03T03:20:22.686Z,1.70
2018-11-03T03:22:51.394Z,1.70
2018-11-03T03:25:20.195Z,1.70
2018-11-03T03:27:49.009Z,1.70
2018-11-03T03:30:17.834Z,1.70
2018-11-03T03:32:46.538Z,1.60
2018-11-03T03:35:15.193Z,1.60
2018-11-03T03:37:43.926Z,1.60
2018-11-03T03:40:12.705Z,1.60
2018-11-03T03:42:41.479Z,1.60
2018-11-03T03:45:10.796Z,1.60
2018-11-03T03:47:39.538Z,1.60
2018-11-03T03:58:48.180Z,1.50
2018-11-03T04:01:16.914Z,1.50
2018-11-03T04:03:45.665Z,1.50
2018-11-03T04:06:14.254Z,1.40
2018-11-03T04:08:42.981Z,1.40
2018-11-03T04:11:11.778Z,1.40
2018-11-03T04:13:40.427Z,1.40
2018-11-03T04:16:09.047Z,1.40
2018-11-03T04:18:37.627Z,1.30
2018-11-03T04:21:06.484Z,1.30
2018-11-03T04:23:35.204Z,1.30
2018-11-03T04:26:04.006Z,1.30
2018-11-03T04:28:32.951Z,1.30
2018-11-03T04:31:01.660Z,1.30
2018-11-03T04:33:30.454Z,1.30
2018-11-03T04:35:59.124Z,1.30
2018-11-03T04:55:33.155Z,1.10
2018-11-03T04:58:03.042Z,1.10
2018-11-03T05:00:31.994Z,1.10
2018-11-03T05:03:00.731Z,1.10
2018-11-03T05:05:31.189Z,1.00
2018-11-03T05:08:00.025Z,1.00
2018-11-03T05:10:31.721Z,1.00
2018-11-03T05:13:00.874Z,1.00
2018-11-03T05:15:29.926Z,1.00
2018-11-03T07:18:04.336Z,0.60
2018-11-03T07:26:19.883Z,0.80
2018-11-03T07:28:52.293Z,0.90
2018-11-03T07:31:35.070Z,0.90
2018-11-03T07:34:08.513Z,1.00
2018-11-03T07:36:58.753Z,1.10
2018-11-03T07:40:01.800Z,1.20
2018-11-03T07:42:44.973Z,1.20
2018-11-03T07:45:14.513Z,1.30
2018-11-03T07:47:43.328Z,1.30
2018-11-03T07:50:14.169Z,1.40
2018-11-03T07:52:53.336Z,1.50
2018-11-03T07:55:21.886Z,1.50
2018-11-03T07:57:50.786Z,1.70
2018-11-03T08:00:19.549Z,1.70
2018-11-03T08:02:47.985Z,1.80
2018-11-03T08:05:16.689Z,1.90
2018-11-03T08:07:46.382Z,2.00
2018-11-03T08:10:15.334Z,2.10
2018-11-03T08:12:45.307Z,2.20
2018-11-03T08:15:39.504Z,2.30
2018-11-03T08:18:07.979Z,2.30
2018-11-03T08:20:36.503Z,2.50
2018-11-03T08:23:05.155Z,2.60
2018-11-03T08:25:33.734Z,2.60
2018-11-03T08:28:03.406Z,2.70
2018-11-03T08:30:32.021Z,2.80
2018-11-03T08:33:00.615Z,2.90
2018-11-03T08:35:33.472Z,3.00
2018-11-03T08:38:02.095Z,3.00
2018-11-03T08:40:31.447Z,3.10
2018-11-03T08:43:00.064Z,3.10
2018-11-03T08:45:32.966Z,3.20
2018-11-03T08:48:07.175Z,3.20
2018-11-03T08:50:35.948Z,3.30
2018-11-03T08:53:05.103Z,3.30
2018-11-03T08:58:27.521Z,3.50
2018-11-03T09:00:56.245Z,3.60
2018-11-03T09:03:26.124Z,3.70
2018-11-03T09:05:55.146Z,3.70
2018-11-03T09:08:54.705Z,3.80
2018-11-03T09:11:24.111Z,3.90
2018-11-03T09:13:56.271Z,4.00
2018-11-03T09:16:25.141Z,4.10
2018-11-03T09:18:53.911Z,4.20
2018-11-03T09:21:23.684Z,4.30
2018-11-03T09:24:07.870Z,4.30
2018-11-03T09:26:45.294Z,4.40
2018-11-03T09:29:14.150Z,4.40
2018-11-03T09:31:42.789Z,4.50
2018-11-03T09:34:11.338Z,4.60
2018-11-03T09:36:39.998Z,4.60
2018-11-03T09:39:10.610Z,4.70
2018-11-03T09:41:39.755Z,4.80
2018-11-03T09:44:08.350Z,4.90
2018-11-03T09:46:37.042Z,5.00
2018-11-03T09:49:05.865Z,5.10
2018-11-03T09:51:34.447Z,5.20
2018-11-03T09:54:03.074Z,5.20
2018-11-03T09:56:31.830Z,5.30
2018-11-03T09:59:00.372Z,5.40
2018-11-03T10:01:29.102Z,5.50
2018-11-03T10:03:57.642Z,5.60
2018-11-03T10:06:26.406Z,5.60
2018-11-03T10:08:54.833Z,5.70
2018-11-03T10:11:23.905Z,5.80
2018-11-03T10:14:08.860Z,6.00
2018-11-03T10:16:37.555Z,6.10
2018-11-03T10:19:06.220Z,6.20
2018-11-03T10:21:34.921Z,6.40
2018-11-03T10:24:03.551Z,6.50
2018-11-03T10:26:32.089Z,6.60
2018-11-03T10:29:00.647Z,6.70
2018-11-03T10:31:29.154Z,6.80
2018-11-03T10:33:57.620Z,6.90
2018-11-03T10:36:26.135Z,7.00
2018-11-03T10:38:54.499Z,7.10
2018-11-03T10:41:22.815Z,7.20
2018-11-03T10:43:51.418Z,7.30
2018-11-03T10:46:20.056Z,7.50
2018-11-03T10:48:48.682Z,7.50
2018-11-03T10:51:17.208Z,7.60
2018-11-03T10:53:45.660Z,7.70
2018-11-03T10:56:15.123Z,7.60
2018-11-03T10:58:43.607Z,7.70
2018-11-03T11:01:17.569Z,7.70
2018-11-03T11:03:57.860Z,7.80
2018-11-03T11:06:31.643Z,7.80
2018-11-03T11:09:05.586Z,7.90
2018-11-03T11:11:48.533Z,7.90
2018-11-03T11:14:17.672Z,8.00
2018-11-03T11:17:00.348Z,8.00
2018-11-03T11:19:28.913Z,8.00
2018-11-03T11:21:57.344Z,8.10
2018-11-03T11:24:25.754Z,8.10
2018-11-03T11:26:54.112Z,8.20
2018-11-03T11:29:22.499Z,8.20
2018-11-03T11:31:50.882Z,8.30
2018-11-03T11:34:20.763Z,8.30
2018-11-03T11:36:49.310Z,8.40
2018-11-03T11:39:17.884Z,8.50
2018-11-03T11:41:46.409Z,8.50
2018-11-03T11:44:14.707Z,8.60
2018-11-03T11:46:43.371Z,8.60
2018-11-03T11:49:12.049Z,8.70
2018-11-03T11:51:40.715Z,8.70
2018-11-03T11:54:09.238Z,8.70
2018-11-03T11:56:37.652Z,8.80
2018-11-03T11:59:06.007Z,8.80
2018-11-03T12:01:34.537Z,8.90
2018-11-03T12:04:03.014Z,8.90
2018-11-03T12:06:31.542Z,9.00
2018-11-03T12:09:00.229Z,9.00
2018-11-03T12:11:44.893Z,9.10
2018-11-03T12:14:13.630Z,9.10
2018-11-03T12:16:42.119Z,9.20
2018-11-03T12:19:10.571Z,9.20
2018-11-03T12:21:39.254Z,9.30
2018-11-03T12:24:07.731Z,9.30
2018-11-03T12:26:36.625Z,9.30
2018-11-03T12:29:06.371Z,9.40
2018-11-03T12:31:36.947Z,9.40
2018-11-03T12:34:06.502Z,9.40
2018-11-03T12:36:36.630Z,9.40
2018-11-03T12:39:08.290Z,9.50
2018-11-03T12:41:39.042Z,9.50
2018-11-03T12:44:07.430Z,9.50
2018-11-03T12:46:41.894Z,9.60
2018-11-03T12:49:10.209Z,9.60
2018-11-03T12:51:38.625Z,9.70
2018-11-03T12:54:07.279Z,9.70
2018-11-03T12:56:35.641Z,9.70
2018-11-03T12:59:04.051Z,9.70
2018-11-03T13:01:33.248Z,9.70
2018-11-03T13:04:01.637Z,9.70
2018-11-03T13:06:29.965Z,9.70
2018-11-03T13:08:58.466Z,9.70
2018-11-03T13:11:26.954Z,9.70
2018-11-03T13:13:55.470Z,9.80
2018-11-03T13:16:23.858Z,9.80
2018-11-03T13:18:52.514Z,9.80
2018-11-03T13:21:20.875Z,9.80
2018-11-03T13:23:49.267Z,9.80
2018-11-03T13:26:18.084Z,9.80
2018-11-03T13:28:46.491Z,9.80
2018-11-03T13:31:14.850Z,9.80
2018-11-03T13:33:43.262Z,9.80
2018-11-03T13:36:11.754Z,9.80
2018-11-03T13:38:40.219Z,9.80
2018-11-03T13:41:08.595Z,9.80
2018-11-03T13:43:37.093Z,9.90
2018-11-03T13:46:25.383Z,9.90
2018-11-03T13:49:03.763Z,9.90
2018-11-03T13:51:32.500Z,9.90
2018-11-03T13:54:02.143Z,9.90
2018-11-03T13:56:31.999Z,9.80
2018-11-03T13:59:00.820Z,9.80
2018-11-03T14:04:20.863Z,9.70
2018-11-03T14:06:49.615Z,9.60
2018-11-03T14:09:18.387Z,9.50
2018-11-03T14:11:47.099Z,9.40
2018-11-03T14:14:20.243Z,9.40
2018-11-03T14:25:25.541Z,9.10
2018-11-03T14:27:54.495Z,9.10
2018-11-03T14:30:23.394Z,9.10
2018-11-03T14:32:56.331Z,9.00
2018-11-03T14:41:07.774Z,8.90
2018-11-03T14:43:36.355Z,8.80
2018-11-03T14:46:05.093Z,8.70
2018-11-03T14:48:33.810Z,8.70
2018-11-03T14:51:03.012Z,8.60
2018-11-03T14:53:31.834Z,8.60
2018-11-03T14:59:58.949Z,8.50
2018-11-03T15:02:27.560Z,8.40
2018-11-03T15:04:56.006Z,8.40
2018-11-03T15:07:24.748Z,8.40
2018-11-03T15:09:53.331Z,8.30
2018-11-03T15:21:02.357Z,8.20
2018-11-03T15:23:33.593Z,8.10
2018-11-03T15:26:03.151Z,8.10
2018-11-03T15:28:31.799Z,8.10
2018-11-03T15:31:00.437Z,8.00
2018-11-03T15:33:29.019Z,8.00
2018-11-03T15:35:58.591Z,7.90
2018-11-03T15:38:27.178Z,7.80
2018-11-03T15:40:55.930Z,7.80
2018-11-03T15:43:24.536Z,7.70
2018-11-03T15:45:53.099Z,7.70
2018-11-03T15:48:21.815Z,7.60
2018-11-03T15:51:06.643Z,7.50
2018-11-03T15:53:35.307Z,7.50
2018-11-03T15:56:03.786Z,7.40
2018-11-03T15:58:32.507Z,7.30
2018-11-03T16:01:01.047Z,7.20
2018-11-03T16:03:29.529Z,7.20
2018-11-03T16:05:59.654Z,7.10
2018-11-03T16:08:29.882Z,7.00
2018-11-03T16:10:58.353Z,7.00
2018-11-03T16:13:26.983Z,6.90
2018-11-03T16:15:59.622Z,6.80
2018-11-03T16:18:28.594Z,6.80
2018-11-03T16:20:57.111Z,6.60
2018-11-03T16:23:28.937Z,6.60
2018-11-03T16:25:57.666Z,6.50
2018-11-03T16:28:26.415Z,6.40
2018-11-03T16:31:03.790Z,6.30
2018-11-03T16:33:32.418Z,6.30
2018-11-03T16:36:01.151Z,6.20
2018-11-03T16:38:29.988Z,6.10
2018-11-03T16:40:58.520Z,6.00
2018-11-03T16:43:27.228Z,6.00
2018-11-03T16:46:11.631Z,5.90
2018-11-03T16:48:40.414Z,5.90
2018-11-03T16:51:09.293Z,5.80
2018-11-03T17:07:23.368Z,5.70
2018-11-03T17:12:47.262Z,5.40
2018-11-03T17:15:16.067Z,5.40
2018-11-03T17:17:44.721Z,5.30
2018-11-03T17:20:13.051Z,5.30
2018-11-03T17:22:41.677Z,5.20
2018-11-03T17:25:11.280Z,5.20
2018-11-03T17:27:40.123Z,5.10
2018-11-03T17:30:12.051Z,5.00
2018-11-03T17:32:40.569Z,5.00
2018-11-03T17:35:09.279Z,4.90
2018-11-03T17:37:38.667Z,4.90
2018-11-03T17:40:08.200Z,4.80
2018-11-03T17:42:36.703Z,4.70
2018-11-03T17:45:06.188Z,4.60
2018-11-03T17:47:35.186Z,4.60
2018-11-03T17:50:03.955Z,4.50
2018-11-03T17:52:36.443Z,4.50
2018-11-03T17:55:05.538Z,4.40
2018-11-03T17:57:34.042Z,4.30
2018-11-03T18:00:02.447Z,4.20
2018-11-03T18:02:30.858Z,4.10
2018-11-03T18:04:59.380Z,4.10
2018-11-03T18:07:28.316Z,4.00
2018-11-03T18:09:56.712Z,4.00
2018-11-03T18:12:25.078Z,4.00
2018-11-03T18:14:54.559Z,3.90
2018-11-03T18:17:22.913Z,3.90
2018-11-03T18:19:51.276Z,3.80
2018-11-03T18:22:19.587Z,3.80
2018-11-03T18:24:47.844Z,3.70
2018-11-03T18:27:16.286Z,3.70
2018-11-03T18:29:44.672Z,3.60
2018-11-03T18:32:13.017Z,3.60
2018-11-03T18:34:41.675Z,3.50
2018-11-03T18:37:10.164Z,3.50
2018-11-03T18:39:39.241Z,3.40
2018-11-03T18:42:07.615Z,3.40
2018-11-03T18:44:36.079Z,3.30
2018-11-03T18:47:04.932Z,3.30
2018-11-03T18:49:33.399Z,3.30
2018-11-03T18:52:01.918Z,3.20
2018-11-03T18:54:30.588Z,3.20
2018-11-03T18:56:58.998Z,3.30
2018-11-03T18:59:27.603Z,3.30
2018-11-03T19:01:57.016Z,3.30
2018-11-03T19:04:25.589Z,3.30
2018-11-03T19:06:54.135Z,3.30
2018-11-03T19:09:22.646Z,3.20
2018-11-03T19:11:51.085Z,3.20
2018-11-03T19:14:19.722Z,3.10
2018-11-03T19:16:48.190Z,3.10
2018-11-03T19:19:16.696Z,3.10
2018-11-03T19:21:45.238Z,3.10
2018-11-03T19:24:34.507Z,3.10
2018-11-03T19:27:03.063Z,3.00
2018-11-03T19:29:31.757Z,3.00
2018-11-03T19:32:00.316Z,3.00
2018-11-03T19:34:28.758Z,2.90
2018-11-03T19:36:57.359Z,2.90
2018-11-03T19:39:25.833Z,2.90
2018-11-03T19:41:54.366Z,2.80
2018-11-03T19:44:22.871Z,2.80
2018-11-03T19:46:51.515Z,2.80
2018-11-03T19:49:19.949Z,2.80
2018-11-03T19:51:48.659Z,2.70
2018-11-03T19:57:26.704Z,2.70
2018-11-03T19:59:55.016Z,2.60
2018-11-03T20:02:23.595Z,2.60
2018-11-03T20:04:51.833Z,2.60
2018-11-03T20:07:21.304Z,2.50
2018-11-03T20:09:49.608Z,2.50
2018-11-03T20:12:17.869Z,2.50
2018-11-03T20:14:46.158Z,2.40
2018-11-03T20:17:14.710Z,2.40
2018-11-03T20:19:43.041Z,2.40
2018-11-03T20:22:11.348Z,2.40
2018-11-03T20:27:29.978Z,2.30
2018-11-03T20:29:58.206Z,2.30
2018-11-03T20:32:26.588Z,2.30
2018-11-03T20:34:54.963Z,2.20
2018-11-03T20:37:25.057Z,2.20
2018-11-03T20:39:53.427Z,2.20
2018-11-03T20:42:21.785Z,2.10
2018-11-03T20:44:50.170Z,2.10
2018-11-03T20:47:20.071Z,2.10
2018-11-03T20:49:48.315Z,2.00
2018-11-03T20:52:16.591Z,2.00
2018-11-03T20:54:44.959Z,2.00
2018-11-03T20:57:13.219Z,2.00
2018-11-03T20:59:41.446Z,2.00
2018-11-03T21:02:09.740Z,1.90
2018-11-03T21:04:37.975Z,1.90
2018-11-03T21:07:06.355Z,1.90
2018-11-03T21:09:34.610Z,1.90
2018-11-03T21:12:02.835Z,1.90
2018-11-03T21:14:31.091Z,1.90
2018-11-03T21:16:59.338Z,1.90
2018-11-03T21:19:27.614Z,1.80
2018-11-03T21:22:11.558Z,1.80
2018-11-03T21:24:39.858Z,1.80
2018-11-03T21:27:09.628Z,1.80
2018-11-03T21:29:38.110Z,1.80
2018-11-03T21:32:07.067Z,1.80
2018-11-03T21:34:35.283Z,1.80
2018-11-03T21:37:03.702Z,1.80
2018-11-03T21:39:31.958Z,1.80
2018-11-03T21:42:00.323Z,1.80
2018-11-03T21:44:28.553Z,1.70
2018-11-03T21:46:56.827Z,1.70
2018-11-03T21:49:25.235Z,1.70
2018-11-03T21:51:53.451Z,1.60
2018-11-03T21:54:21.829Z,1.60
2018-11-03T21:56:56.153Z,1.50
2018-11-03T21:59:24.378Z,1.50
2018-11-03T22:01:52.730Z,1.50
2018-11-03T22:04:20.983Z,1.50
2018-11-03T22:06:51.843Z,1.60
2018-11-03T22:09:20.069Z,1.60
2018-11-03T22:11:48.324Z,1.60
2018-11-03T22:14:16.520Z,1.60
2018-11-03T22:16:44.746Z,1.60
2018-11-03T22:19:12.947Z,1.60
2018-11-03T22:21:46.176Z,1.60
2018-11-03T22:24:18.270Z,1.60
2018-11-03T22:26:46.554Z,1.60
2018-11-03T22:29:14.814Z,1.50
2018-11-03T22:31:42.997Z,1.50
2018-11-03T22:34:11.274Z,1.50
2018-11-03T22:36:39.699Z,1.50
2018-11-03T22:39:08.420Z,1.50
2018-11-03T22:41:36.654Z,1.50
2018-11-03T22:44:05.034Z,1.50
2018-11-03T22:46:33.334Z,1.50
2018-11-03T22:49:01.658Z,1.50
2018-11-03T22:51:31.615Z,1.60
2018-11-03T22:54:00.067Z,1.60
2018-11-03T22:56:28.345Z,1.60
2018-11-03T22:58:56.574Z,1.50
2018-11-03T23:01:24.786Z,1.50
2018-11-03T23:03:53.026Z,1.50
2018-11-03T23:06:21.217Z,1.50
2018-11-03T23:08:49.542Z,1.50
2018-11-03T23:11:19.821Z,1.50
2018-11-03T23:13:48.065Z,1.40
2018-11-03T23:16:16.226Z,1.40
2018-11-03T23:18:44.463Z,1.40
2018-11-03T23:21:12.669Z,1.40
2018-11-03T23:23:41.048Z,1.40
2018-11-03T23:26:09.248Z,1.50
2018-11-03T23:28:37.499Z,1.50
2018-11-03T23:31:05.698Z,1.50
2018-11-03T23:33:38.029Z,1.50
2018-11-03T23:36:06.227Z,1.50
2018-11-03T23:38:34.441Z,1.50
2018-11-03T23:41:02.640Z,1.50
2018-11-03T23:43:32.238Z,1.50
2018-11-03T23:46:00.422Z,1.50
2018-11-03T23:48:28.635Z,1.50
2018-11-03T23:50:56.863Z,1.40
2018-11-03T23:53:25.276Z,1.40
2018-11-03T23:55:58.826Z,1.40
2018-11-03T23:58:27.024Z,1.40
